sensor_id;sensor_type;location;lat;lon;timestamp;pressure;altitude;pressure_sealevel;temperature;humidity
65784;BME280;52532;53.358;-1.488;2022-07-10T00:01:05;102004.36;;;20.63;44.60
65784;BME280;52532;53.358;-1.488;2022-07-10T00:04:08;102011.98;;;18.85;47.14
65784;BME280;52532;53.358;-1.488;2022-07-10T00:07:11;102007.75;;;20.19;45.95
65784;BME280;52532;53.358;-1.488;2022-07-10T00:10:14;102008.56;;;19.57;46.90
65784;BME280;52532;53.358;-1.488;2022-07-10T00:13:18;102008.48;;;18.29;48.26
65784;BME280;52532;53.358;-1.488;2022-07-10T00:16:22;102005.80;;;17.33;51.05
65784;BME280;52532;53.358;-1.488;2022-07-10T00:19:31;102006.55;;;18.81;48.65
65784;BME280;52532;53.358;-1.488;2022-07-10T00:22:38;102003.68;;;17.70;51.13
65784;BME280;52532;53.358;-1.488;2022-07-10T00:25:41;101996.84;;;19.34;47.51
65784;BME280;52532;53.358;-1.488;2022-07-10T00:28:45;101988.50;;;18.07;50.63
65784;BME280;52532;53.358;-1.488;2022-07-10T00:31:49;101991.41;;;21.47;43.37
65784;BME280;52532;53.358;-1.488;2022-07-10T00:34:52;101984.97;;;21.16;43.91
65784;BME280;52532;53.358;-1.488;2022-07-10T00:37:56;101982.88;;;20.74;45.13
65784;BME280;52532;53.358;-1.488;2022-07-10T00:40:59;101983.33;;;21.00;44.60
65784;BME280;52532;53.358;-1.488;2022-07-10T00:44:03;101980.56;;;19.95;46.67
65784;BME280;52532;53.358;-1.488;2022-07-10T00:47:07;101982.88;;;19.72;46.44
65784;BME280;52532;53.358;-1.488;2022-07-10T00:50:11;101977.99;;;19.45;47.56
65784;BME280;52532;53.358;-1.488;2022-07-10T00:53:15;101976.03;;;19.02;48.28
65784;BME280;52532;53.358;-1.488;2022-07-10T00:56:21;101974.75;;;20.75;44.46
65784;BME280;52532;53.358;-1.488;2022-07-10T00:59:25;101969.72;;;22.07;42.47
65784;BME280;52532;53.358;-1.488;2022-07-10T01:02:29;101968.09;;;20.68;45.06
65784;BME280;52532;53.358;-1.488;2022-07-10T01:05:32;101964.01;;;18.93;48.65
65784;BME280;52532;53.358;-1.488;2022-07-10T01:08:36;101962.46;;;21.44;44.71
65784;BME280;52532;53.358;-1.488;2022-07-10T01:11:39;101958.53;;;20.90;45.09
65784;BME280;52532;53.358;-1.488;2022-07-10T01:14:43;101953.85;;;20.16;46.63
65784;BME280;52532;53.358;-1.488;2022-07-10T01:17:46;101951.25;;;19.46;46.53
65784;BME280;52532;53.358;-1.488;2022-07-10T01:20:52;101950.42;;;20.86;44.89
65784;BME280;52532;53.358;-1.488;2022-07-10T01:23:56;101945.11;;;18.90;47.97
65784;BME280;52532;53.358;-1.488;2022-07-10T01:26:59;101936.64;;;17.45;51.82
65784;BME280;52532;53.358;-1.488;2022-07-10T01:30:03;101943.59;;;19.78;47.62
65784;BME280;52532;53.358;-1.488;2022-07-10T01:33:06;101948.49;;;17.77;51.31
65784;BME280;52532;53.358;-1.488;2022-07-10T01:36:09;101949.86;;;13.53;65.82
65784;BME280;52532;53.358;-1.488;2022-07-10T01:39:13;101949.12;;;17.01;57.17
65784;BME280;52532;53.358;-1.488;2022-07-10T01:42:16;101937.97;;;17.85;53.68
65784;BME280;52532;53.358;-1.488;2022-07-10T01:48:10;101938.67;;;19.65;50.10
65784;BME280;52532;53.358;-1.488;2022-07-10T01:51:13;101936.41;;;19.18;50.37
65784;BME280;52532;53.358;-1.488;2022-07-10T01:54:16;101945.03;;;16.25;54.27
65784;BME280;52532;53.358;-1.488;2022-07-10T01:57:19;101938.47;;;19.97;48.15
65784;BME280;52532;53.358;-1.488;2022-07-10T02:00:23;101933.18;;;18.66;50.27
65784;BME280;52532;53.358;-1.488;2022-07-10T02:03:26;101931.87;;;18.69;50.21
65784;BME280;52532;53.358;-1.488;2022-07-10T02:08:42;101935.23;;;18.83;48.44
65784;BME280;52532;53.358;-1.488;2022-07-10T02:11:45;101935.16;;;18.93;48.44
65784;BME280;52532;53.358;-1.488;2022-07-10T02:14:48;101931.88;;;17.90;50.23
65784;BME280;52532;53.358;-1.488;2022-07-10T02:17:51;101928.98;;;19.19;48.25
65784;BME280;52532;53.358;-1.488;2022-07-10T02:20:54;101926.62;;;21.02;44.51
65784;BME280;52532;53.358;-1.488;2022-07-10T02:23:58;101928.15;;;20.87;44.49
65784;BME280;52532;53.358;-1.488;2022-07-10T02:27:01;101922.68;;;17.50;50.62
65784;BME280;52532;53.358;-1.488;2022-07-10T02:30:06;101922.74;;;18.47;48.86
65784;BME280;52532;53.358;-1.488;2022-07-10T02:33:09;101923.39;;;20.44;45.64
65784;BME280;52532;53.358;-1.488;2022-07-10T02:36:12;101922.52;;;21.41;44.40
65784;BME280;52532;53.358;-1.488;2022-07-10T02:39:15;101911.76;;;19.19;48.46
65784;BME280;52532;53.358;-1.488;2022-07-10T02:42:18;101902.82;;;19.59;47.19
65784;BME280;52532;53.358;-1.488;2022-07-10T02:45:21;101903.70;;;16.60;52.82
65784;BME280;52532;53.358;-1.488;2022-07-10T02:48:25;101901.85;;;16.68;53.50
65784;BME280;52532;53.358;-1.488;2022-07-10T02:51:28;101906.24;;;18.28;50.19
65784;BME280;52532;53.358;-1.488;2022-07-10T02:54:32;101904.70;;;18.33;49.87
65784;BME280;52532;53.358;-1.488;2022-07-10T02:57:35;101907.28;;;15.59;56.97
65784;BME280;52532;53.358;-1.488;2022-07-10T03:00:38;101901.91;;;17.69;52.55
65784;BME280;52532;53.358;-1.488;2022-07-10T03:03:43;101905.35;;;18.28;50.78
65784;BME280;52532;53.358;-1.488;2022-07-10T03:06:46;101902.80;;;17.13;52.53
65784;BME280;52532;53.358;-1.488;2022-07-10T03:09:49;101903.10;;;19.72;47.76
65784;BME280;52532;53.358;-1.488;2022-07-10T03:12:53;101903.94;;;18.15;50.90
65784;BME280;52532;53.358;-1.488;2022-07-10T03:15:56;101906.75;;;16.75;53.98
65784;BME280;52532;53.358;-1.488;2022-07-10T03:18:59;101897.65;;;17.64;52.28
65784;BME280;52532;53.358;-1.488;2022-07-10T03:22:02;101901.76;;;17.32;52.05
65784;BME280;52532;53.358;-1.488;2022-07-10T03:25:06;101904.42;;;19.08;49.46
65784;BME280;52532;53.358;-1.488;2022-07-10T03:28:11;101903.50;;;19.68;48.08
65784;BME280;52532;53.358;-1.488;2022-07-10T03:31:14;101895.64;;;18.18;49.67
65784;BME280;52532;53.358;-1.488;2022-07-10T03:34:18;101892.18;;;17.25;52.23
65784;BME280;52532;53.358;-1.488;2022-07-10T03:37:22;101884.15;;;19.25;48.05
65784;BME280;52532;53.358;-1.488;2022-07-10T03:40:25;101880.31;;;19.66;47.41
65784;BME280;52532;53.358;-1.488;2022-07-10T03:43:29;101881.06;;;18.36;49.28
65784;BME280;52532;53.358;-1.488;2022-07-10T03:46:32;101875.43;;;19.29;47.46
65784;BME280;52532;53.358;-1.488;2022-07-10T03:49:35;101881.14;;;19.89;46.82
65784;BME280;52532;53.358;-1.488;2022-07-10T03:52:41;101880.76;;;15.12;58.21
65784;BME280;52532;53.358;-1.488;2022-07-10T03:55:44;101876.45;;;17.66;52.06
65784;BME280;52532;53.358;-1.488;2022-07-10T03:58:48;101872.92;;;15.73;56.69
65784;BME280;52532;53.358;-1.488;2022-07-10T04:01:51;101875.21;;;15.52;57.33
65784;BME280;52532;53.358;-1.488;2022-07-10T04:04:54;101869.81;;;18.44;51.22
65784;BME280;52532;53.358;-1.488;2022-07-10T04:07:58;101870.89;;;19.79;48.14
65784;BME280;52532;53.358;-1.488;2022-07-10T04:11:01;101871.66;;;18.78;50.31
65784;BME280;52532;53.358;-1.488;2022-07-10T04:14:09;101867.23;;;17.03;53.65
65784;BME280;52532;53.358;-1.488;2022-07-10T04:17:12;101866.16;;;17.72;50.51
65784;BME280;52532;53.358;-1.488;2022-07-10T04:20:16;101866.39;;;17.27;51.89
65784;BME280;52532;53.358;-1.488;2022-07-10T04:23:19;101860.60;;;20.17;46.50
65784;BME280;52532;53.358;-1.488;2022-07-10T04:26:23;101863.16;;;18.07;50.22
65784;BME280;52532;53.358;-1.488;2022-07-10T04:29:26;101866.49;;;20.44;46.24
65784;BME280;52532;53.358;-1.488;2022-07-10T04:32:29;101869.56;;;18.39;49.66
65784;BME280;52532;53.358;-1.488;2022-07-10T04:35:33;101865.54;;;18.31;50.43
65784;BME280;52532;53.358;-1.488;2022-07-10T04:38:37;101867.48;;;18.53;48.64
65784;BME280;52532;53.358;-1.488;2022-07-10T04:41:40;101866.62;;;19.51;48.22
65784;BME280;52532;53.358;-1.488;2022-07-10T04:44:43;101866.25;;;20.65;46.81
65784;BME280;52532;53.358;-1.488;2022-07-10T04:47:47;101864.35;;;19.77;48.35
65784;BME280;52532;53.358;-1.488;2022-07-10T04:50:52;101862.60;;;18.73;49.96
65784;BME280;52532;53.358;-1.488;2022-07-10T04:53:56;101861.20;;;20.28;46.68
65784;BME280;52532;53.358;-1.488;2022-07-10T04:56:59;101859.26;;;19.90;47.40
65784;BME280;52532;53.358;-1.488;2022-07-10T05:00:09;101857.47;;;19.24;49.35
65784;BME280;52532;53.358;-1.488;2022-07-10T05:03:14;101855.71;;;19.43;49.01
65784;BME280;52532;53.358;-1.488;2022-07-10T05:06:18;101851.33;;;19.84;47.38
65784;BME280;52532;53.358;-1.488;2022-07-10T05:09:21;101854.62;;;18.38;50.49
65784;BME280;52532;53.358;-1.488;2022-07-10T05:12:24;101850.08;;;20.03;47.46
65784;BME280;52532;53.358;-1.488;2022-07-10T05:15:27;101851.07;;;20.54;45.36
65784;BME280;52532;53.358;-1.488;2022-07-10T05:18:30;101849.68;;;20.98;46.59
65784;BME280;52532;53.358;-1.488;2022-07-10T05:21:33;101851.72;;;17.40;53.43
65784;BME280;52532;53.358;-1.488;2022-07-10T05:24:37;101848.32;;;15.71;56.22
65784;BME280;52532;53.358;-1.488;2022-07-10T05:27:40;101843.26;;;19.50;49.42
65784;BME280;52532;53.358;-1.488;2022-07-10T05:30:44;101847.88;;;19.62;51.19
65784;BME280;52532;53.358;-1.488;2022-07-10T05:33:48;101843.54;;;18.29;53.45
65784;BME280;52532;53.358;-1.488;2022-07-10T05:36:51;101846.00;;;18.94;51.06
65784;BME280;52532;53.358;-1.488;2022-07-10T05:39:55;101846.32;;;21.03;46.59
65784;BME280;52532;53.358;-1.488;2022-07-10T05:43:01;101845.46;;;20.18;46.35
65784;BME280;52532;53.358;-1.488;2022-07-10T05:46:09;101847.90;;;19.93;46.56
65784;BME280;52532;53.358;-1.488;2022-07-10T05:49:13;101840.97;;;20.19;46.14
65784;BME280;52532;53.358;-1.488;2022-07-10T05:55:14;101839.88;;;21.39;43.69
65784;BME280;52532;53.358;-1.488;2022-07-10T05:58:18;101842.03;;;22.18;42.40
65784;BME280;52532;53.358;-1.488;2022-07-10T06:01:22;101841.37;;;22.13;42.36
65784;BME280;52532;53.358;-1.488;2022-07-10T06:04:26;101847.84;;;20.60;45.10
65784;BME280;52532;53.358;-1.488;2022-07-10T06:07:29;101841.29;;;20.55;45.32
65784;BME280;52532;53.358;-1.488;2022-07-10T06:10:33;101835.55;;;20.10;46.40
65784;BME280;52532;53.358;-1.488;2022-07-10T06:13:36;101839.17;;;20.89;45.84
65784;BME280;52532;53.358;-1.488;2022-07-10T06:16:40;101839.48;;;20.47;45.65
65784;BME280;52532;53.358;-1.488;2022-07-10T06:19:43;101838.25;;;21.80;43.09
65784;BME280;52532;53.358;-1.488;2022-07-10T06:22:47;101838.26;;;21.71;42.55
65784;BME280;52532;53.358;-1.488;2022-07-10T06:25:50;101842.35;;;20.64;43.28
65784;BME280;52532;53.358;-1.488;2022-07-10T06:28:53;101834.80;;;22.35;41.64
65784;BME280;52532;53.358;-1.488;2022-07-10T06:31:56;101835.54;;;21.17;42.98
65784;BME280;52532;53.358;-1.488;2022-07-10T06:34:59;101832.84;;;19.14;47.63
65784;BME280;52532;53.358;-1.488;2022-07-10T06:38:02;101838.01;;;20.31;45.90
65784;BME280;52532;53.358;-1.488;2022-07-10T06:41:05;101832.95;;;20.96;44.13
65784;BME280;52532;53.358;-1.488;2022-07-10T06:44:08;101830.23;;;21.55;42.84
65784;BME280;52532;53.358;-1.488;2022-07-10T06:47:13;101830.27;;;21.51;43.09
65784;BME280;52532;53.358;-1.488;2022-07-10T06:51:22;101828.47;;;22.31;40.59
65784;BME280;52532;53.358;-1.488;2022-07-10T06:54:25;101830.95;;;22.19;39.39
65784;BME280;52532;53.358;-1.488;2022-07-10T06:57:29;101830.50;;;21.91;40.34
65784;BME280;52532;53.358;-1.488;2022-07-10T07:00:32;101832.39;;;22.46;39.81
65784;BME280;52532;53.358;-1.488;2022-07-10T07:03:35;101830.35;;;22.95;39.92
65784;BME280;52532;53.358;-1.488;2022-07-10T07:06:38;101832.85;;;22.50;39.79
65784;BME280;52532;53.358;-1.488;2022-07-10T07:09:44;101833.21;;;21.31;41.91
65784;BME280;52532;53.358;-1.488;2022-07-10T07:12:54;101833.93;;;20.56;42.30
65784;BME280;52532;53.358;-1.488;2022-07-10T07:15:57;101836.45;;;22.76;39.13
65784;BME280;52532;53.358;-1.488;2022-07-10T07:19:02;101834.70;;;23.78;37.55
65784;BME280;52532;53.358;-1.488;2022-07-10T07:22:07;101834.84;;;22.05;39.12
65784;BME280;52532;53.358;-1.488;2022-07-10T07:26:49;101836.30;;;23.50;38.02
65784;BME280;52532;53.358;-1.488;2022-07-10T07:29:52;101831.37;;;21.19;39.24
65784;BME280;52532;53.358;-1.488;2022-07-10T07:32:55;101828.64;;;22.68;38.64
65784;BME280;52532;53.358;-1.488;2022-07-10T07:35:58;101824.53;;;21.41;39.61
65784;BME280;52532;53.358;-1.488;2022-07-10T07:39:01;101821.07;;;21.76;39.40
65784;BME280;52532;53.358;-1.488;2022-07-10T07:42:04;101824.92;;;23.03;36.88
65784;BME280;52532;53.358;-1.488;2022-07-10T07:45:08;101820.96;;;23.82;36.82
65784;BME280;52532;53.358;-1.488;2022-07-10T07:48:12;101815.99;;;22.06;39.67
65784;BME280;52532;53.358;-1.488;2022-07-10T07:51:15;101809.31;;;22.19;39.94
65784;BME280;52532;53.358;-1.488;2022-07-10T07:54:18;101813.98;;;23.17;37.87
65784;BME280;52532;53.358;-1.488;2022-07-10T08:00:03;101806.28;;;22.25;39.10
65784;BME280;52532;53.358;-1.488;2022-07-10T08:03:07;101806.42;;;22.92;38.65
65784;BME280;52532;53.358;-1.488;2022-07-10T08:06:10;101806.21;;;22.56;37.66
65784;BME280;52532;53.358;-1.488;2022-07-10T08:09:13;101806.77;;;22.65;37.77
65784;BME280;52532;53.358;-1.488;2022-07-10T08:12:16;101806.76;;;22.61;37.62
65784;BME280;52532;53.358;-1.488;2022-07-10T08:15:20;101808.70;;;24.40;35.29
65784;BME280;52532;53.358;-1.488;2022-07-10T08:18:24;101808.33;;;23.90;34.67
65784;BME280;52532;53.358;-1.488;2022-07-10T08:21:28;101801.77;;;23.50;36.39
65784;BME280;52532;53.358;-1.488;2022-07-10T08:24:32;101798.28;;;21.45;38.92
65784;BME280;52532;53.358;-1.488;2022-07-10T08:27:35;101796.06;;;23.97;34.89
65784;BME280;52532;53.358;-1.488;2022-07-10T08:30:39;101796.32;;;23.58;35.14
65784;BME280;52532;53.358;-1.488;2022-07-10T08:33:44;101796.09;;;24.27;34.51
65784;BME280;52532;53.358;-1.488;2022-07-10T08:36:48;101796.61;;;22.75;36.38
65784;BME280;52532;53.358;-1.488;2022-07-10T08:39:51;101790.26;;;23.85;33.90
65784;BME280;52532;53.358;-1.488;2022-07-10T08:42:54;101786.64;;;23.18;34.66
65784;BME280;52532;53.358;-1.488;2022-07-10T08:45:58;101787.27;;;23.73;34.41
65784;BME280;52532;53.358;-1.488;2022-07-10T08:49:08;101790.27;;;24.47;32.95
65784;BME280;52532;53.358;-1.488;2022-07-10T08:52:23;101784.82;;;26.19;30.85
65784;BME280;52532;53.358;-1.488;2022-07-10T08:55:27;101787.22;;;24.24;32.30
65784;BME280;52532;53.358;-1.488;2022-07-10T08:58:33;101783.40;;;24.97;32.00
65784;BME280;52532;53.358;-1.488;2022-07-10T09:01:37;101780.14;;;22.89;34.31
65784;BME280;52532;53.358;-1.488;2022-07-10T09:04:40;101777.37;;;24.43;32.86
65784;BME280;52532;53.358;-1.488;2022-07-10T09:07:43;101775.36;;;23.27;34.74
65784;BME280;52532;53.358;-1.488;2022-07-10T09:10:46;101770.91;;;25.40;31.66
65784;BME280;52532;53.358;-1.488;2022-07-10T09:13:50;101768.35;;;24.45;32.94
65784;BME280;52532;53.358;-1.488;2022-07-10T09:16:54;101764.44;;;23.44;36.51
65784;BME280;52532;53.358;-1.488;2022-07-10T09:19:57;101762.63;;;22.22;38.59
65784;BME280;52532;53.358;-1.488;2022-07-10T09:23:15;101763.80;;;23.99;34.70
65784;BME280;52532;53.358;-1.488;2022-07-10T09:26:18;101756.50;;;25.03;33.90
65784;BME280;52532;53.358;-1.488;2022-07-10T09:29:21;101753.60;;;23.41;35.62
65784;BME280;52532;53.358;-1.488;2022-07-10T09:32:24;101744.80;;;23.27;37.18
65784;BME280;52532;53.358;-1.488;2022-07-10T09:35:29;101747.17;;;25.35;33.44
65784;BME280;52532;53.358;-1.488;2022-07-10T09:39:41;101746.51;;;25.12;34.56
65784;BME280;52532;53.358;-1.488;2022-07-10T09:42:54;101748.47;;;24.89;35.27
65784;BME280;52532;53.358;-1.488;2022-07-10T09:45:57;101738.77;;;25.04;34.06
65784;BME280;52532;53.358;-1.488;2022-07-10T09:49:05;101741.33;;;25.54;33.17
65784;BME280;52532;53.358;-1.488;2022-07-10T09:52:09;101742.84;;;25.13;34.27
65784;BME280;52532;53.358;-1.488;2022-07-10T09:55:12;101744.19;;;25.76;32.28
65784;BME280;52532;53.358;-1.488;2022-07-10T09:58:17;101746.05;;;25.62;32.53
65784;BME280;52532;53.358;-1.488;2022-07-10T10:01:22;101743.01;;;24.55;33.93
65784;BME280;52532;53.358;-1.488;2022-07-10T10:04:27;101745.01;;;24.43;34.88
65784;BME280;52532;53.358;-1.488;2022-07-10T10:07:34;101738.27;;;25.58;33.07
65784;BME280;52532;53.358;-1.488;2022-07-10T10:10:44;101738.66;;;25.85;32.53
65784;BME280;52532;53.358;-1.488;2022-07-10T10:13:49;101731.33;;;24.17;35.83
65784;BME280;52532;53.358;-1.488;2022-07-10T10:16:54;101731.65;;;25.67;33.00
65784;BME280;52532;53.358;-1.488;2022-07-10T10:20:00;101728.31;;;25.11;32.83
65784;BME280;52532;53.358;-1.488;2022-07-10T10:24:11;101723.08;;;26.19;32.62
65784;BME280;52532;53.358;-1.488;2022-07-10T10:27:15;101721.58;;;25.99;32.25
65784;BME280;52532;53.358;-1.488;2022-07-10T10:30:19;101720.01;;;26.05;31.97
65784;BME280;52532;53.358;-1.488;2022-07-10T10:33:55;101721.43;;;26.90;30.61
65784;BME280;52532;53.358;-1.488;2022-07-10T10:36:58;101715.13;;;25.64;31.48
65784;BME280;52532;53.358;-1.488;2022-07-10T10:40:02;101710.88;;;27.15;30.21
65784;BME280;52532;53.358;-1.488;2022-07-10T10:43:22;101703.42;;;25.93;32.72
65784;BME280;52532;53.358;-1.488;2022-07-10T10:46:25;101698.07;;;24.87;34.77
65784;BME280;52532;53.358;-1.488;2022-07-10T10:49:49;101693.59;;;24.11;35.90
65784;BME280;52532;53.358;-1.488;2022-07-10T10:53:00;101690.90;;;25.82;33.10
65784;BME280;52532;53.358;-1.488;2022-07-10T10:59:00;101691.00;;;26.80;31.97
65784;BME280;52532;53.358;-1.488;2022-07-10T11:02:24;101686.86;;;26.36;32.25
65784;BME280;52532;53.358;-1.488;2022-07-10T11:05:45;101684.07;;;24.96;35.13
65784;BME280;52532;53.358;-1.488;2022-07-10T11:08:52;101690.23;;;26.26;31.78
65784;BME280;52532;53.358;-1.488;2022-07-10T11:12:00;101686.85;;;26.60;32.48
65784;BME280;52532;53.358;-1.488;2022-07-10T11:15:04;101680.28;;;25.86;33.75
65784;BME280;52532;53.358;-1.488;2022-07-10T11:18:18;101673.27;;;23.47;37.55
65784;BME280;52532;53.358;-1.488;2022-07-10T11:21:25;101668.24;;;23.94;37.23
65784;BME280;52532;53.358;-1.488;2022-07-10T11:25:03;101669.78;;;25.89;34.51
65784;BME280;52532;53.358;-1.488;2022-07-10T11:28:10;101670.62;;;26.59;32.63
65784;BME280;52532;53.358;-1.488;2022-07-10T11:31:15;101664.26;;;25.22;34.15
65784;BME280;52532;53.358;-1.488;2022-07-10T11:34:22;101660.00;;;26.36;33.60
65784;BME280;52532;53.358;-1.488;2022-07-10T11:37:26;101659.37;;;26.85;32.31
65784;BME280;52532;53.358;-1.488;2022-07-10T11:40:35;101659.77;;;26.13;32.43
65784;BME280;52532;53.358;-1.488;2022-07-10T11:43:46;101662.64;;;25.65;33.08
65784;BME280;52532;53.358;-1.488;2022-07-10T11:49:47;101655.11;;;25.63;33.54
65784;BME280;52532;53.358;-1.488;2022-07-10T11:52:50;101655.83;;;27.20;32.10
65784;BME280;52532;53.358;-1.488;2022-07-10T11:55:53;101651.16;;;26.75;32.34
65784;BME280;52532;53.358;-1.488;2022-07-10T11:58:58;101653.79;;;26.93;31.56
65784;BME280;52532;53.358;-1.488;2022-07-10T12:02:01;101651.88;;;26.99;31.97
65784;BME280;52532;53.358;-1.488;2022-07-10T12:05:04;101652.33;;;27.38;31.71
65784;BME280;52532;53.358;-1.488;2022-07-10T12:08:08;101649.17;;;27.20;31.27
65784;BME280;52532;53.358;-1.488;2022-07-10T12:11:16;101644.37;;;28.59;30.12
65784;BME280;52532;53.358;-1.488;2022-07-10T12:14:21;101640.49;;;25.13;36.44
65784;BME280;52532;53.358;-1.488;2022-07-10T12:17:27;101640.13;;;27.51;32.19
65784;BME280;52532;53.358;-1.488;2022-07-10T12:20:30;101636.95;;;27.71;33.14
65784;BME280;52532;53.358;-1.488;2022-07-10T12:23:53;101638.59;;;27.00;33.40
65784;BME280;52532;53.358;-1.488;2022-07-10T12:26:56;101631.27;;;29.78;30.05
65784;BME280;52532;53.358;-1.488;2022-07-10T12:30:00;101630.23;;;28.56;31.26
65784;BME280;52532;53.358;-1.488;2022-07-10T12:33:14;101627.92;;;29.77;30.19
65784;BME280;52532;53.358;-1.488;2022-07-10T12:36:20;101630.82;;;27.55;32.51
65784;BME280;52532;53.358;-1.488;2022-07-10T12:39:24;101626.83;;;28.12;32.10
65784;BME280;52532;53.358;-1.488;2022-07-10T12:42:29;101625.64;;;27.40;32.52
65784;BME280;52532;53.358;-1.488;2022-07-10T12:45:33;101625.86;;;28.51;30.56
65784;BME280;52532;53.358;-1.488;2022-07-10T12:48:36;101624.88;;;29.09;30.36
65784;BME280;52532;53.358;-1.488;2022-07-10T12:51:45;101625.07;;;28.17;30.57
65784;BME280;52532;53.358;-1.488;2022-07-10T12:55:05;101622.86;;;29.73;29.64
65784;BME280;52532;53.358;-1.488;2022-07-10T12:58:14;101623.50;;;27.83;31.31
65784;BME280;52532;53.358;-1.488;2022-07-10T13:01:17;101619.90;;;28.44;33.74
65784;BME280;52532;53.358;-1.488;2022-07-10T13:04:23;101616.55;;;28.79;31.52
65784;BME280;52532;53.358;-1.488;2022-07-10T13:07:31;101615.05;;;27.87;30.70
65784;BME280;52532;53.358;-1.488;2022-07-10T13:10:35;101619.89;;;27.38;31.86
65784;BME280;52532;53.358;-1.488;2022-07-10T13:13:38;101622.13;;;27.78;31.50
65784;BME280;52532;53.358;-1.488;2022-07-10T13:16:42;101622.02;;;26.85;32.62
65784;BME280;52532;53.358;-1.488;2022-07-10T13:19:46;101618.40;;;27.46;31.91
65784;BME280;52532;53.358;-1.488;2022-07-10T13:22:50;101611.88;;;28.69;31.10
65784;BME280;52532;53.358;-1.488;2022-07-10T13:25:54;101616.28;;;27.75;32.44
65784;BME280;52532;53.358;-1.488;2022-07-10T13:28:58;101614.28;;;26.97;32.40
65784;BME280;52532;53.358;-1.488;2022-07-10T13:32:02;101611.28;;;29.66;29.18
65784;BME280;52532;53.358;-1.488;2022-07-10T13:35:08;101607.45;;;29.07;30.01
65784;BME280;52532;53.358;-1.488;2022-07-10T13:38:13;101601.11;;;29.23;30.41
65784;BME280;52532;53.358;-1.488;2022-07-10T13:41:16;101602.95;;;31.54;27.17
65784;BME280;52532;53.358;-1.488;2022-07-10T13:44:22;101603.54;;;30.01;27.01
65784;BME280;52532;53.358;-1.488;2022-07-10T13:47:27;101603.39;;;30.62;27.32
65784;BME280;52532;53.358;-1.488;2022-07-10T13:50:31;101597.55;;;30.16;26.78
65784;BME280;52532;53.358;-1.488;2022-07-10T13:53:35;101595.79;;;30.96;26.20
65784;BME280;52532;53.358;-1.488;2022-07-10T13:56:39;101603.99;;;30.22;27.02
65784;BME280;52532;53.358;-1.488;2022-07-10T13:59:43;101600.93;;;30.18;26.61
65784;BME280;52532;53.358;-1.488;2022-07-10T14:02:48;101597.88;;;31.00;26.21
65784;BME280;52532;53.358;-1.488;2022-07-10T14:05:56;101599.64;;;30.84;26.55
65784;BME280;52532;53.358;-1.488;2022-07-10T14:09:05;101598.41;;;30.11;27.85
65784;BME280;52532;53.358;-1.488;2022-07-10T14:12:09;101600.18;;;31.40;25.52
65784;BME280;52532;53.358;-1.488;2022-07-10T14:15:14;101597.98;;;31.77;25.41
65784;BME280;52532;53.358;-1.488;2022-07-10T14:18:19;101596.50;;;30.72;26.22
65784;BME280;52532;53.358;-1.488;2022-07-10T14:21:37;101597.42;;;29.71;26.78
65784;BME280;52532;53.358;-1.488;2022-07-10T14:24:42;101589.55;;;30.75;25.29
65784;BME280;52532;53.358;-1.488;2022-07-10T14:27:45;101590.92;;;30.89;25.29
65784;BME280;52532;53.358;-1.488;2022-07-10T14:30:49;101589.54;;;32.68;24.87
65784;BME280;52532;53.358;-1.488;2022-07-10T14:33:52;101588.42;;;29.82;26.40
65784;BME280;52532;53.358;-1.488;2022-07-10T14:36:55;101592.52;;;31.23;24.29
65784;BME280;52532;53.358;-1.488;2022-07-10T14:39:58;101594.76;;;30.43;25.66
65784;BME280;52532;53.358;-1.488;2022-07-10T14:43:01;101589.27;;;31.43;23.59
65784;BME280;52532;53.358;-1.488;2022-07-10T14:46:05;101583.89;;;30.22;25.11
65784;BME280;52532;53.358;-1.488;2022-07-10T14:49:08;101581.43;;;33.52;22.60
65784;BME280;52532;53.358;-1.488;2022-07-10T14:52:11;101579.89;;;33.07;22.40
65784;BME280;52532;53.358;-1.488;2022-07-10T14:55:15;101587.69;;;32.54;22.84
65784;BME280;52532;53.358;-1.488;2022-07-10T14:58:18;101582.87;;;29.73;25.40
65784;BME280;52532;53.358;-1.488;2022-07-10T15:01:22;101582.86;;;31.63;23.03
65784;BME280;52532;53.358;-1.488;2022-07-10T15:04:25;101576.94;;;30.81;23.50
65784;BME280;52532;53.358;-1.488;2022-07-10T15:07:29;101572.89;;;30.71;22.97
65784;BME280;52532;53.358;-1.488;2022-07-10T15:10:33;101573.92;;;32.40;22.73
65784;BME280;52532;53.358;-1.488;2022-07-10T15:13:36;101566.40;;;33.40;21.67
65784;BME280;52532;53.358;-1.488;2022-07-10T15:16:40;101563.53;;;30.08;23.50
65784;BME280;52532;53.358;-1.488;2022-07-10T15:19:43;101564.09;;;31.66;22.79
65784;BME280;52532;53.358;-1.488;2022-07-10T15:22:46;101567.63;;;31.85;22.06
65784;BME280;52532;53.358;-1.488;2022-07-10T15:25:49;101557.43;;;33.29;21.20
65784;BME280;52532;53.358;-1.488;2022-07-10T15:28:52;101547.32;;;33.54;20.69
65784;BME280;52532;53.358;-1.488;2022-07-10T15:31:57;101553.25;;;32.33;21.49
65784;BME280;52532;53.358;-1.488;2022-07-10T15:35:00;101548.93;;;30.81;24.01
65784;BME280;52532;53.358;-1.488;2022-07-10T15:38:03;101548.72;;;31.57;22.13
65784;BME280;52532;53.358;-1.488;2022-07-10T15:41:07;101540.43;;;32.21;22.05
65784;BME280;52532;53.358;-1.488;2022-07-10T15:44:10;101544.52;;;31.87;22.82
65784;BME280;52532;53.358;-1.488;2022-07-10T15:47:13;101541.59;;;31.33;22.78
65784;BME280;52532;53.358;-1.488;2022-07-10T15:50:16;101538.84;;;32.27;21.62
65784;BME280;52532;53.358;-1.488;2022-07-10T15:53:20;101542.32;;;32.55;22.62
65784;BME280;52532;53.358;-1.488;2022-07-10T15:56:22;101539.54;;;32.56;22.11
65784;BME280;52532;53.358;-1.488;2022-07-10T15:59:26;101545.47;;;30.85;23.31
65784;BME280;52532;53.358;-1.488;2022-07-10T16:02:29;101539.04;;;31.77;22.03
65784;BME280;52532;53.358;-1.488;2022-07-10T16:05:32;101531.25;;;32.22;21.92
65784;BME280;52532;53.358;-1.488;2022-07-10T16:08:35;101530.20;;;32.09;22.59
65784;BME280;52532;53.358;-1.488;2022-07-10T16:11:38;101526.10;;;32.56;22.79
65784;BME280;52532;53.358;-1.488;2022-07-10T16:14:42;101523.84;;;33.06;21.19